Aviation Digital Data Service (ADDS)

Output produced by METARs form (1903 UTC 25 September 2016)
found at http://aviationweather.gov/adds/metars/
 
KMHT 251737Z 2518/2618 33012G20KT P6SM FEW050 
     FM252300 34008KT P6SM SKC 
     FM260300 VRB03KT P6SM SKC